sensor_id;sensor_type;location;lat;lon;timestamp;temperature;humidity
9772;DHT22;4925;52.588;13.370;2024-02-21T00:00:48;9.00;99.90
9772;DHT22;4925;52.588;13.370;2024-02-21T00:03:14;9.00;99.90
9772;DHT22;4925;52.588;13.370;2024-02-21T00:05:40;9.10;99.90
9772;DHT22;4925;52.588;13.370;2024-02-21T00:08:05;9.10;99.90
9772;DHT22;4925;52.588;13.370;2024-02-21T00:10:31;9.00;99.90
9772;DHT22;4925;52.588;13.370;2024-02-21T00:12:58;9.00;99.90
9772;DHT22;4925;52.588;13.370;2024-02-21T00:15:25;9.00;99.90
9772;DHT22;4925;52.588;13.370;2024-02-21T00:17:52;8.90;99.90
9772;DHT22;4925;52.588;13.370;2024-02-21T00:20:18;8.90;99.90
9772;DHT22;4925;52.588;13.370;2024-02-21T00:22:44;8.90;99.90
9772;DHT22;4925;52.588;13.370;2024-02-21T00:25:10;9.00;99.90
9772;DHT22;4925;52.588;13.370;2024-02-21T00:27:36;9.00;99.90
9772;DHT22;4925;52.588;13.370;2024-02-21T00:30:03;8.90;99.90
9772;DHT22;4925;52.588;13.370;2024-02-21T00:32:28;9.00;99.90
9772;DHT22;4925;52.588;13.370;2024-02-21T00:34:54;9.00;99.90
9772;DHT22;4925;52.588;13.370;2024-02-21T00:37:20;9.00;99.90
9772;DHT22;4925;52.588;13.370;2024-02-21T00:39:46;9.00;99.90
9772;DHT22;4925;52.588;13.370;2024-02-21T00:42:11;8.90;99.90
9772;DHT22;4925;52.588;13.370;2024-02-21T00:44:37;9.00;99.90
9772;DHT22;4925;52.588;13.370;2024-02-21T00:47:03;9.00;99.90
9772;DHT22;4925;52.588;13.370;2024-02-21T00:49:29;9.00;99.90
9772;DHT22;4925;52.588;13.370;2024-02-21T00:51:54;9.00;99.90
9772;DHT22;4925;52.588;13.370;2024-02-21T00:54:20;9.00;99.90
9772;DHT22;4925;52.588;13.370;2024-02-21T00:56:46;8.90;99.90
9772;DHT22;4925;52.588;13.370;2024-02-21T00:59:12;9.00;99.90
9772;DHT22;4925;52.588;13.370;2024-02-21T01:01:37;9.00;99.90
9772;DHT22;4925;52.588;13.370;2024-02-21T01:04:03;9.00;99.90
9772;DHT22;4925;52.588;13.370;2024-02-21T01:06:29;9.00;99.90
9772;DHT22;4925;52.588;13.370;2024-02-21T01:08:55;9.00;99.90
9772;DHT22;4925;52.588;13.370;2024-02-21T01:11:21;9.10;99.90
9772;DHT22;4925;52.588;13.370;2024-02-21T01:13:46;9.00;99.90
9772;DHT22;4925;52.588;13.370;2024-02-21T01:16:12;9.00;99.90
9772;DHT22;4925;52.588;13.370;2024-02-21T01:18:38;9.00;99.90
9772;DHT22;4925;52.588;13.370;2024-02-21T01:21:07;8.90;99.90
9772;DHT22;4925;52.588;13.370;2024-02-21T01:23:37;9.00;99.90
9772;DHT22;4925;52.588;13.370;2024-02-21T01:26:03;9.00;99.90
9772;DHT22;4925;52.588;13.370;2024-02-21T01:28:29;8.90;99.90
9772;DHT22;4925;52.588;13.370;2024-02-21T01:30:56;8.90;99.90
9772;DHT22;4925;52.588;13.370;2024-02-21T01:33:22;8.90;99.90
9772;DHT22;4925;52.588;13.370;2024-02-21T01:35:47;8.80;99.90
9772;DHT22;4925;52.588;13.370;2024-02-21T01:38:13;8.90;99.90
9772;DHT22;4925;52.588;13.370;2024-02-21T01:40:39;8.80;99.90
9772;DHT22;4925;52.588;13.370;2024-02-21T01:43:15;8.90;99.90
9772;DHT22;4925;52.588;13.370;2024-02-21T01:45:42;8.90;99.90
9772;DHT22;4925;52.588;13.370;2024-02-21T01:48:07;8.90;99.90
9772;DHT22;4925;52.588;13.370;2024-02-21T01:50:33;8.90;99.90
9772;DHT22;4925;52.588;13.370;2024-02-21T01:52:59;8.90;99.90
9772;DHT22;4925;52.588;13.370;2024-02-21T01:55:25;8.80;99.90
9772;DHT22;4925;52.588;13.370;2024-02-21T01:57:51;8.90;99.90
9772;DHT22;4925;52.588;13.370;2024-02-21T02:00:17;8.80;99.90
9772;DHT22;4925;52.588;13.370;2024-02-21T02:02:44;8.80;99.90
9772;DHT22;4925;52.588;13.370;2024-02-21T02:05:11;8.80;99.90
9772;DHT22;4925;52.588;13.370;2024-02-21T02:07:37;8.80;99.90
9772;DHT22;4925;52.588;13.370;2024-02-21T02:10:03;8.80;99.90
9772;DHT22;4925;52.588;13.370;2024-02-21T02:12:29;8.80;99.90
9772;DHT22;4925;52.588;13.370;2024-02-21T02:14:59;8.90;99.90
9772;DHT22;4925;52.588;13.370;2024-02-21T02:17:25;8.80;99.90
9772;DHT22;4925;52.588;13.370;2024-02-21T02:19:51;8.80;99.90
9772;DHT22;4925;52.588;13.370;2024-02-21T02:22:21;8.80;99.90
9772;DHT22;4925;52.588;13.370;2024-02-21T02:24:47;8.70;99.90
9772;DHT22;4925;52.588;13.370;2024-02-21T02:27:13;8.60;99.90
9772;DHT22;4925;52.588;13.370;2024-02-21T02:29:39;8.60;99.90
9772;DHT22;4925;52.588;13.370;2024-02-21T02:32:05;8.50;99.90
9772;DHT22;4925;52.588;13.370;2024-02-21T02:34:31;8.50;99.90
9772;DHT22;4925;52.588;13.370;2024-02-21T02:36:57;8.50;99.90
9772;DHT22;4925;52.588;13.370;2024-02-21T02:39:22;8.40;99.90
9772;DHT22;4925;52.588;13.370;2024-02-21T02:41:48;8.30;99.90
9772;DHT22;4925;52.588;13.370;2024-02-21T02:44:13;8.30;99.90
9772;DHT22;4925;52.588;13.370;2024-02-21T02:46:42;8.30;99.90
9772;DHT22;4925;52.588;13.370;2024-02-21T02:49:08;8.30;99.90
9772;DHT22;4925;52.588;13.370;2024-02-21T02:51:34;8.30;99.90
9772;DHT22;4925;52.588;13.370;2024-02-21T02:53:59;8.20;99.90
9772;DHT22;4925;52.588;13.370;2024-02-21T02:56:25;8.20;99.90
9772;DHT22;4925;52.588;13.370;2024-02-21T02:58:50;8.10;99.90
9772;DHT22;4925;52.588;13.370;2024-02-21T03:01:16;8.20;99.90
9772;DHT22;4925;52.588;13.370;2024-02-21T03:03:42;8.10;99.90
9772;DHT22;4925;52.588;13.370;2024-02-21T03:06:07;8.10;99.90
9772;DHT22;4925;52.588;13.370;2024-02-21T03:08:33;8.00;99.90
9772;DHT22;4925;52.588;13.370;2024-02-21T03:10:59;8.00;99.90
9772;DHT22;4925;52.588;13.370;2024-02-21T03:13:26;8.00;99.90
9772;DHT22;4925;52.588;13.370;2024-02-21T03:15:51;8.00;99.90
9772;DHT22;4925;52.588;13.370;2024-02-21T03:18:17;8.00;99.90
9772;DHT22;4925;52.588;13.370;2024-02-21T03:20:42;8.00;99.90
9772;DHT22;4925;52.588;13.370;2024-02-21T03:23:09;8.00;99.90
9772;DHT22;4925;52.588;13.370;2024-02-21T03:25:35;8.10;99.90
9772;DHT22;4925;52.588;13.370;2024-02-21T03:28:01;8.00;99.90
9772;DHT22;4925;52.588;13.370;2024-02-21T03:30:27;7.90;99.90
9772;DHT22;4925;52.588;13.370;2024-02-21T03:32:53;8.00;99.90
9772;DHT22;4925;52.588;13.370;2024-02-21T03:35:18;7.90;99.90
9772;DHT22;4925;52.588;13.370;2024-02-21T03:37:45;7.90;99.90
9772;DHT22;4925;52.588;13.370;2024-02-21T03:40:11;7.90;99.90
9772;DHT22;4925;52.588;13.370;2024-02-21T03:42:38;7.90;99.90
9772;DHT22;4925;52.588;13.370;2024-02-21T03:45:04;7.90;99.90
9772;DHT22;4925;52.588;13.370;2024-02-21T03:47:30;7.90;99.90
9772;DHT22;4925;52.588;13.370;2024-02-21T03:49:55;7.80;99.90
9772;DHT22;4925;52.588;13.370;2024-02-21T03:52:22;7.80;99.90
9772;DHT22;4925;52.588;13.370;2024-02-21T03:54:47;7.80;99.90
9772;DHT22;4925;52.588;13.370;2024-02-21T03:57:13;7.80;99.90
9772;DHT22;4925;52.588;13.370;2024-02-21T03:59:39;7.90;99.90
9772;DHT22;4925;52.588;13.370;2024-02-21T04:02:07;7.90;99.90
9772;DHT22;4925;52.588;13.370;2024-02-21T04:04:35;7.90;99.90
9772;DHT22;4925;52.588;13.370;2024-02-21T04:07:03;7.90;99.90
9772;DHT22;4925;52.588;13.370;2024-02-21T04:09:35;7.80;99.90
9772;DHT22;4925;52.588;13.370;2024-02-21T04:12:00;7.90;99.90
9772;DHT22;4925;52.588;13.370;2024-02-21T04:14:26;7.90;99.90
9772;DHT22;4925;52.588;13.370;2024-02-21T04:16:52;7.90;99.90
9772;DHT22;4925;52.588;13.370;2024-02-21T04:19:17;7.90;99.90
9772;DHT22;4925;52.588;13.370;2024-02-21T04:21:43;7.90;99.90
9772;DHT22;4925;52.588;13.370;2024-02-21T04:24:09;7.90;99.90
9772;DHT22;4925;52.588;13.370;2024-02-21T04:26:35;7.90;99.90
9772;DHT22;4925;52.588;13.370;2024-02-21T04:29:00;7.90;99.90
9772;DHT22;4925;52.588;13.370;2024-02-21T04:31:26;7.90;99.90
9772;DHT22;4925;52.588;13.370;2024-02-21T04:33:51;8.00;99.90
9772;DHT22;4925;52.588;13.370;2024-02-21T04:36:17;7.90;99.90
9772;DHT22;4925;52.588;13.370;2024-02-21T04:38:43;8.00;99.90
9772;DHT22;4925;52.588;13.370;2024-02-21T04:41:08;8.00;99.90
9772;DHT22;4925;52.588;13.370;2024-02-21T04:43:34;8.00;99.90
9772;DHT22;4925;52.588;13.370;2024-02-21T04:46:00;8.00;99.90
9772;DHT22;4925;52.588;13.370;2024-02-21T04:48:26;8.00;99.90
9772;DHT22;4925;52.588;13.370;2024-02-21T04:50:51;8.00;99.90
9772;DHT22;4925;52.588;13.370;2024-02-21T04:53:17;8.00;99.90
9772;DHT22;4925;52.588;13.370;2024-02-21T04:55:44;8.00;99.90
9772;DHT22;4925;52.588;13.370;2024-02-21T04:58:09;8.00;99.90
9772;DHT22;4925;52.588;13.370;2024-02-21T05:00:35;7.90;99.90
9772;DHT22;4925;52.588;13.370;2024-02-21T05:03:01;7.90;99.90
9772;DHT22;4925;52.588;13.370;2024-02-21T05:05:26;7.90;99.90
9772;DHT22;4925;52.588;13.370;2024-02-21T05:07:52;7.90;99.90
9772;DHT22;4925;52.588;13.370;2024-02-21T05:10:17;7.90;99.90
9772;DHT22;4925;52.588;13.370;2024-02-21T05:12:44;8.00;99.90
9772;DHT22;4925;52.588;13.370;2024-02-21T05:15:10;8.00;99.90
9772;DHT22;4925;52.588;13.370;2024-02-21T05:17:36;7.90;99.90
9772;DHT22;4925;52.588;13.370;2024-02-21T05:20:01;8.00;99.90
9772;DHT22;4925;52.588;13.370;2024-02-21T05:22:27;8.00;99.90
9772;DHT22;4925;52.588;13.370;2024-02-21T05:24:53;8.10;99.90
9772;DHT22;4925;52.588;13.370;2024-02-21T05:27:18;8.00;99.90
9772;DHT22;4925;52.588;13.370;2024-02-21T05:29:44;8.10;99.90
9772;DHT22;4925;52.588;13.370;2024-02-21T05:32:10;8.10;99.90
9772;DHT22;4925;52.588;13.370;2024-02-21T05:34:36;8.10;99.90
9772;DHT22;4925;52.588;13.370;2024-02-21T05:37:02;8.00;99.90
9772;DHT22;4925;52.588;13.370;2024-02-21T05:39:27;8.10;99.90
9772;DHT22;4925;52.588;13.370;2024-02-21T05:41:54;8.00;99.90
9772;DHT22;4925;52.588;13.370;2024-02-21T05:44:20;8.00;99.90
9772;DHT22;4925;52.588;13.370;2024-02-21T05:46:47;8.00;99.90
9772;DHT22;4925;52.588;13.370;2024-02-21T05:49:13;8.00;99.90
9772;DHT22;4925;52.588;13.370;2024-02-21T05:51:38;8.20;99.90
9772;DHT22;4925;52.588;13.370;2024-02-21T05:54:04;8.00;99.90
9772;DHT22;4925;52.588;13.370;2024-02-21T05:56:30;8.10;99.90
9772;DHT22;4925;52.588;13.370;2024-02-21T05:58:56;8.10;99.90
9772;DHT22;4925;52.588;13.370;2024-02-21T06:01:22;8.20;99.90
9772;DHT22;4925;52.588;13.370;2024-02-21T06:03:47;8.20;99.90
9772;DHT22;4925;52.588;13.370;2024-02-21T06:06:13;8.20;99.90
9772;DHT22;4925;52.588;13.370;2024-02-21T06:08:40;8.20;99.90
9772;DHT22;4925;52.588;13.370;2024-02-21T06:11:06;8.20;99.90
9772;DHT22;4925;52.588;13.370;2024-02-21T06:13:32;8.20;99.90
9772;DHT22;4925;52.588;13.370;2024-02-21T06:15:57;8.20;99.90
9772;DHT22;4925;52.588;13.370;2024-02-21T06:18:23;8.20;99.90
9772;DHT22;4925;52.588;13.370;2024-02-21T06:20:49;8.20;99.90
9772;DHT22;4925;52.588;13.370;2024-02-21T06:23:16;8.20;99.90
9772;DHT22;4925;52.588;13.370;2024-02-21T06:25:44;8.30;99.90
9772;DHT22;4925;52.588;13.370;2024-02-21T06:28:10;8.20;99.90
9772;DHT22;4925;52.588;13.370;2024-02-21T06:30:36;8.10;99.90
9772;DHT22;4925;52.588;13.370;2024-02-21T06:33:02;8.20;99.90
9772;DHT22;4925;52.588;13.370;2024-02-21T06:35:28;8.10;99.90
9772;DHT22;4925;52.588;13.370;2024-02-21T06:37:54;8.10;99.90
9772;DHT22;4925;52.588;13.370;2024-02-21T06:40:22;8.20;99.90
9772;DHT22;4925;52.588;13.370;2024-02-21T06:42:48;8.20;99.90
9772;DHT22;4925;52.588;13.370;2024-02-21T06:45:15;8.20;99.90
9772;DHT22;4925;52.588;13.370;2024-02-21T06:47:40;8.20;99.90
9772;DHT22;4925;52.588;13.370;2024-02-21T06:50:06;8.20;99.90
9772;DHT22;4925;52.588;13.370;2024-02-21T06:52:32;8.30;99.90
9772;DHT22;4925;52.588;13.370;2024-02-21T06:54:58;8.30;99.90
9772;DHT22;4925;52.588;13.370;2024-02-21T06:57:24;8.30;99.90
9772;DHT22;4925;52.588;13.370;2024-02-21T06:59:49;8.30;99.90
9772;DHT22;4925;52.588;13.370;2024-02-21T07:02:15;8.30;99.90
9772;DHT22;4925;52.588;13.370;2024-02-21T07:04:40;8.40;99.90
9772;DHT22;4925;52.588;13.370;2024-02-21T07:07:06;8.40;99.90
9772;DHT22;4925;52.588;13.370;2024-02-21T07:09:32;8.40;99.90
9772;DHT22;4925;52.588;13.370;2024-02-21T07:11:58;8.40;99.90
9772;DHT22;4925;52.588;13.370;2024-02-21T07:14:25;8.40;99.90
9772;DHT22;4925;52.588;13.370;2024-02-21T07:16:51;8.40;99.90
9772;DHT22;4925;52.588;13.370;2024-02-21T07:19:17;8.50;99.90
9772;DHT22;4925;52.588;13.370;2024-02-21T07:21:42;8.50;99.90
9772;DHT22;4925;52.588;13.370;2024-02-21T07:24:08;8.50;99.90
9772;DHT22;4925;52.588;13.370;2024-02-21T07:26:34;8.50;99.90
9772;DHT22;4925;52.588;13.370;2024-02-21T07:29:00;8.50;99.90
9772;DHT22;4925;52.588;13.370;2024-02-21T07:31:25;8.60;99.90
9772;DHT22;4925;52.588;13.370;2024-02-21T07:33:51;8.60;99.90
9772;DHT22;4925;52.588;13.370;2024-02-21T07:36:30;8.70;99.90
9772;DHT22;4925;52.588;13.370;2024-02-21T07:38:56;8.70;99.90
9772;DHT22;4925;52.588;13.370;2024-02-21T07:41:21;8.80;99.90
9772;DHT22;4925;52.588;13.370;2024-02-21T07:43:47;8.70;99.90
9772;DHT22;4925;52.588;13.370;2024-02-21T07:46:14;8.70;99.90
9772;DHT22;4925;52.588;13.370;2024-02-21T07:48:40;8.80;99.90
9772;DHT22;4925;52.588;13.370;2024-02-21T07:51:05;8.70;99.90
9772;DHT22;4925;52.588;13.370;2024-02-21T07:53:31;8.70;99.90
9772;DHT22;4925;52.588;13.370;2024-02-21T07:55:57;8.80;99.90
9772;DHT22;4925;52.588;13.370;2024-02-21T07:58:22;8.80;99.90
9772;DHT22;4925;52.588;13.370;2024-02-21T08:00:48;8.80;99.90
9772;DHT22;4925;52.588;13.370;2024-02-21T08:03:14;8.80;99.90
9772;DHT22;4925;52.588;13.370;2024-02-21T08:05:41;8.80;99.90
9772;DHT22;4925;52.588;13.370;2024-02-21T08:08:06;8.80;99.90
9772;DHT22;4925;52.588;13.370;2024-02-21T08:10:33;8.80;99.90
9772;DHT22;4925;52.588;13.370;2024-02-21T08:12:59;8.80;99.90
9772;DHT22;4925;52.588;13.370;2024-02-21T08:15:25;8.80;99.90
9772;DHT22;4925;52.588;13.370;2024-02-21T08:17:57;8.80;99.90
9772;DHT22;4925;52.588;13.370;2024-02-21T08:20:27;8.90;99.90
9772;DHT22;4925;52.588;13.370;2024-02-21T08:22:52;8.80;99.90
9772;DHT22;4925;52.588;13.370;2024-02-21T08:25:18;8.80;99.90
9772;DHT22;4925;52.588;13.370;2024-02-21T08:27:43;8.80;99.90
9772;DHT22;4925;52.588;13.370;2024-02-21T08:30:11;8.80;99.90
9772;DHT22;4925;52.588;13.370;2024-02-21T08:32:37;8.80;99.90
9772;DHT22;4925;52.588;13.370;2024-02-21T08:35:03;8.80;99.90
9772;DHT22;4925;52.588;13.370;2024-02-21T08:37:29;8.90;99.90
9772;DHT22;4925;52.588;13.370;2024-02-21T08:39:54;8.80;99.90
9772;DHT22;4925;52.588;13.370;2024-02-21T08:42:20;8.90;99.90
9772;DHT22;4925;52.588;13.370;2024-02-21T08:44:46;8.90;99.90
9772;DHT22;4925;52.588;13.370;2024-02-21T08:47:11;8.90;99.90
9772;DHT22;4925;52.588;13.370;2024-02-21T08:49:37;9.00;99.90
9772;DHT22;4925;52.588;13.370;2024-02-21T08:52:03;9.10;99.90
9772;DHT22;4925;52.588;13.370;2024-02-21T08:54:29;9.10;99.90
9772;DHT22;4925;52.588;13.370;2024-02-21T08:56:55;9.10;99.90
9772;DHT22;4925;52.588;13.370;2024-02-21T08:59:22;9.20;99.90
9772;DHT22;4925;52.588;13.370;2024-02-21T09:01:48;9.20;99.90
9772;DHT22;4925;52.588;13.370;2024-02-21T09:04:13;9.20;99.90
9772;DHT22;4925;52.588;13.370;2024-02-21T09:06:39;9.20;99.90
9772;DHT22;4925;52.588;13.370;2024-02-21T09:09:10;9.20;99.90
9772;DHT22;4925;52.588;13.370;2024-02-21T09:11:36;9.20;99.90
9772;DHT22;4925;52.588;13.370;2024-02-21T09:14:03;9.30;99.90
9772;DHT22;4925;52.588;13.370;2024-02-21T09:16:33;9.30;99.90
9772;DHT22;4925;52.588;13.370;2024-02-21T09:18:59;9.30;99.90
9772;DHT22;4925;52.588;13.370;2024-02-21T09:21:25;9.30;99.90
9772;DHT22;4925;52.588;13.370;2024-02-21T09:23:51;9.30;99.90
9772;DHT22;4925;52.588;13.370;2024-02-21T09:26:17;9.30;99.90
9772;DHT22;4925;52.588;13.370;2024-02-21T09:28:43;9.40;99.90
9772;DHT22;4925;52.588;13.370;2024-02-21T09:31:09;9.40;99.90
9772;DHT22;4925;52.588;13.370;2024-02-21T09:33:35;9.50;99.90
9772;DHT22;4925;52.588;13.370;2024-02-21T09:36:01;9.40;99.90
9772;DHT22;4925;52.588;13.370;2024-02-21T09:38:27;9.50;99.90
9772;DHT22;4925;52.588;13.370;2024-02-21T09:43:45;9.70;99.90
9772;DHT22;4925;52.588;13.370;2024-02-21T09:46:17;9.70;99.90
9772;DHT22;4925;52.588;13.370;2024-02-21T09:51:38;9.70;99.90
9772;DHT22;4925;52.588;13.370;2024-02-21T09:54:07;9.80;99.90
9772;DHT22;4925;52.588;13.370;2024-02-21T09:56:33;9.70;99.90
9772;DHT22;4925;52.588;13.370;2024-02-21T09:58:59;9.80;99.90
9772;DHT22;4925;52.588;13.370;2024-02-21T10:01:28;9.80;99.90
9772;DHT22;4925;52.588;13.370;2024-02-21T10:03:54;9.90;99.90
9772;DHT22;4925;52.588;13.370;2024-02-21T10:06:19;9.80;99.90
9772;DHT22;4925;52.588;13.370;2024-02-21T10:08:52;9.90;99.90
9772;DHT22;4925;52.588;13.370;2024-02-21T10:11:24;9.90;99.90
9772;DHT22;4925;52.588;13.370;2024-02-21T10:13:50;9.90;99.90
9772;DHT22;4925;52.588;13.370;2024-02-21T10:16:16;9.90;99.90
9772;DHT22;4925;52.588;13.370;2024-02-21T10:18:42;9.90;99.90
9772;DHT22;4925;52.588;13.370;2024-02-21T10:21:08;10.00;99.90
9772;DHT22;4925;52.588;13.370;2024-02-21T10:23:50;10.00;99.90
9772;DHT22;4925;52.588;13.370;2024-02-21T10:26:18;10.00;99.90
9772;DHT22;4925;52.588;13.370;2024-02-21T10:28:44;10.00;99.90
9772;DHT22;4925;52.588;13.370;2024-02-21T10:31:27;10.10;99.90
9772;DHT22;4925;52.588;13.370;2024-02-21T10:34:00;10.20;99.90
9772;DHT22;4925;52.588;13.370;2024-02-21T10:36:29;10.30;99.90
9772;DHT22;4925;52.588;13.370;2024-02-21T10:38:55;10.30;99.90
9772;DHT22;4925;52.588;13.370;2024-02-21T10:41:21;10.20;99.90
9772;DHT22;4925;52.588;13.370;2024-02-21T10:43:53;10.20;99.90
9772;DHT22;4925;52.588;13.370;2024-02-21T10:46:21;10.20;99.90
9772;DHT22;4925;52.588;13.370;2024-02-21T10:48:47;10.20;99.90
9772;DHT22;4925;52.588;13.370;2024-02-21T10:51:20;10.20;99.90
9772;DHT22;4925;52.588;13.370;2024-02-21T10:56:32;10.20;99.90
9772;DHT22;4925;52.588;13.370;2024-02-21T10:59:05;10.00;99.90
9772;DHT22;4925;52.588;13.370;2024-02-21T11:01:31;9.90;99.90
9772;DHT22;4925;52.588;13.370;2024-02-21T11:04:00;10.00;99.90
9772;DHT22;4925;52.588;13.370;2024-02-21T11:06:27;9.90;99.90
9772;DHT22;4925;52.588;13.370;2024-02-21T11:09:07;9.80;99.90
9772;DHT22;4925;52.588;13.370;2024-02-21T11:11:44;9.70;99.90
9772;DHT22;4925;52.588;13.370;2024-02-21T11:14:20;9.70;99.90
9772;DHT22;4925;52.588;13.370;2024-02-21T11:16:47;9.80;99.90
9772;DHT22;4925;52.588;13.370;2024-02-21T11:19:20;9.80;99.90
9772;DHT22;4925;52.588;13.370;2024-02-21T11:21:46;9.90;99.90
9772;DHT22;4925;52.588;13.370;2024-02-21T11:24:13;10.00;99.90
9772;DHT22;4925;52.588;13.370;2024-02-21T11:26:40;10.20;99.90
9772;DHT22;4925;52.588;13.370;2024-02-21T11:29:07;10.30;99.90
9772;DHT22;4925;52.588;13.370;2024-02-21T11:31:42;10.30;99.90
9772;DHT22;4925;52.588;13.370;2024-02-21T11:34:11;10.50;99.90
9772;DHT22;4925;52.588;13.370;2024-02-21T11:36:46;10.60;99.90
9772;DHT22;4925;52.588;13.370;2024-02-21T11:39:25;10.70;99.90
9772;DHT22;4925;52.588;13.370;2024-02-21T11:42:07;10.80;99.90
9772;DHT22;4925;52.588;13.370;2024-02-21T11:44:37;10.90;99.90
9772;DHT22;4925;52.588;13.370;2024-02-21T11:47:04;11.00;99.90
9772;DHT22;4925;52.588;13.370;2024-02-21T11:49:30;11.10;99.90
9772;DHT22;4925;52.588;13.370;2024-02-21T11:52:02;11.20;99.90
9772;DHT22;4925;52.588;13.370;2024-02-21T11:54:32;11.20;99.90
9772;DHT22;4925;52.588;13.370;2024-02-21T11:56:59;11.20;99.90
9772;DHT22;4925;52.588;13.370;2024-02-21T11:59:24;11.20;99.90
9772;DHT22;4925;52.588;13.370;2024-02-21T12:01:50;11.20;99.90
9772;DHT22;4925;52.588;13.370;2024-02-21T12:04:20;11.40;99.90
9772;DHT22;4925;52.588;13.370;2024-02-21T12:06:46;11.50;99.90
9772;DHT22;4925;52.588;13.370;2024-02-21T12:09:15;11.60;99.90
9772;DHT22;4925;52.588;13.370;2024-02-21T12:11:44;11.60;99.90
9772;DHT22;4925;52.588;13.370;2024-02-21T12:14:11;11.60;99.90
9772;DHT22;4925;52.588;13.370;2024-02-21T12:16:41;11.50;99.90
9772;DHT22;4925;52.588;13.370;2024-02-21T12:19:08;11.50;99.90
9772;DHT22;4925;52.588;13.370;2024-02-21T12:21:34;11.60;99.90
9772;DHT22;4925;52.588;13.370;2024-02-21T12:24:22;11.60;99.90
9772;DHT22;4925;52.588;13.370;2024-02-21T12:26:49;11.70;99.90
9772;DHT22;4925;52.588;13.370;2024-02-21T12:29:15;11.60;99.90
9772;DHT22;4925;52.588;13.370;2024-02-21T12:31:41;11.60;99.90
9772;DHT22;4925;52.588;13.370;2024-02-21T12:34:06;11.60;99.90
9772;DHT22;4925;52.588;13.370;2024-02-21T12:36:46;11.70;99.90
9772;DHT22;4925;52.588;13.370;2024-02-21T12:39:15;11.70;99.90
9772;DHT22;4925;52.588;13.370;2024-02-21T12:41:42;11.80;99.90
9772;DHT22;4925;52.588;13.370;2024-02-21T12:44:10;12.00;99.90
9772;DHT22;4925;52.588;13.370;2024-02-21T12:46:37;12.20;99.90
9772;DHT22;4925;52.588;13.370;2024-02-21T12:49:03;12.30;99.90
9772;DHT22;4925;52.588;13.370;2024-02-21T12:51:32;12.60;99.90
9772;DHT22;4925;52.588;13.370;2024-02-21T12:53:58;12.80;99.90
9772;DHT22;4925;52.588;13.370;2024-02-21T12:56:24;12.80;99.90
9772;DHT22;4925;52.588;13.370;2024-02-21T12:58:53;13.00;99.90
9772;DHT22;4925;52.588;13.370;2024-02-21T13:01:19;13.00;99.90
9772;DHT22;4925;52.588;13.370;2024-02-21T13:03:45;12.80;99.90
9772;DHT22;4925;52.588;13.370;2024-02-21T13:06:12;12.70;99.90
9772;DHT22;4925;52.588;13.370;2024-02-21T13:08:38;12.60;99.90
9772;DHT22;4925;52.588;13.370;2024-02-21T13:11:05;12.60;99.90
9772;DHT22;4925;52.588;13.370;2024-02-21T13:13:32;12.50;99.90
9772;DHT22;4925;52.588;13.370;2024-02-21T13:15:58;12.40;99.90
9772;DHT22;4925;52.588;13.370;2024-02-21T13:18:24;12.50;99.90
9772;DHT22;4925;52.588;13.370;2024-02-21T13:20:49;12.50;99.90
9772;DHT22;4925;52.588;13.370;2024-02-21T13:23:15;12.50;99.90
9772;DHT22;4925;52.588;13.370;2024-02-21T13:25:40;12.30;99.90
9772;DHT22;4925;52.588;13.370;2024-02-21T13:28:06;12.20;99.90
9772;DHT22;4925;52.588;13.370;2024-02-21T13:30:32;12.20;99.90
9772;DHT22;4925;52.588;13.370;2024-02-21T13:32:58;12.20;99.90
9772;DHT22;4925;52.588;13.370;2024-02-21T13:35:24;12.20;99.90
9772;DHT22;4925;52.588;13.370;2024-02-21T13:37:49;12.20;99.90
9772;DHT22;4925;52.588;13.370;2024-02-21T13:40:16;12.20;99.90
9772;DHT22;4925;52.588;13.370;2024-02-21T13:42:42;12.20;99.90
9772;DHT22;4925;52.588;13.370;2024-02-21T13:45:09;12.10;99.90
9772;DHT22;4925;52.588;13.370;2024-02-21T13:47:35;12.10;99.90
9772;DHT22;4925;52.588;13.370;2024-02-21T13:50:02;12.20;99.90
9772;DHT22;4925;52.588;13.370;2024-02-21T13:52:30;12.20;99.90
9772;DHT22;4925;52.588;13.370;2024-02-21T13:54:56;12.30;99.90
9772;DHT22;4925;52.588;13.370;2024-02-21T13:57:21;12.20;99.90
9772;DHT22;4925;52.588;13.370;2024-02-21T13:59:47;12.10;99.90
9772;DHT22;4925;52.588;13.370;2024-02-21T14:02:13;12.10;99.90
9772;DHT22;4925;52.588;13.370;2024-02-21T14:04:39;12.10;99.90
9772;DHT22;4925;52.588;13.370;2024-02-21T14:07:05;12.10;99.90
9772;DHT22;4925;52.588;13.370;2024-02-21T14:09:30;12.00;99.90
9772;DHT22;4925;52.588;13.370;2024-02-21T14:11:57;11.90;99.90
9772;DHT22;4925;52.588;13.370;2024-02-21T14:14:23;11.90;99.90
9772;DHT22;4925;52.588;13.370;2024-02-21T14:16:49;11.90;99.90
9772;DHT22;4925;52.588;13.370;2024-02-21T14:19:14;12.00;99.90
9772;DHT22;4925;52.588;13.370;2024-02-21T14:21:40;12.00;99.90
9772;DHT22;4925;52.588;13.370;2024-02-21T14:24:06;12.00;99.90
9772;DHT22;4925;52.588;13.370;2024-02-21T14:26:32;12.00;99.90
9772;DHT22;4925;52.588;13.370;2024-02-21T14:28:58;11.90;99.90
9772;DHT22;4925;52.588;13.370;2024-02-21T14:31:24;12.00;99.90
9772;DHT22;4925;52.588;13.370;2024-02-21T14:33:51;12.00;99.90
9772;DHT22;4925;52.588;13.370;2024-02-21T14:36:16;12.00;99.90
9772;DHT22;4925;52.588;13.370;2024-02-21T14:38:42;11.90;99.90
9772;DHT22;4925;52.588;13.370;2024-02-21T14:41:09;11.90;99.90
9772;DHT22;4925;52.588;13.370;2024-02-21T14:43:38;11.80;99.90
9772;DHT22;4925;52.588;13.370;2024-02-21T14:46:04;11.80;99.90
9772;DHT22;4925;52.588;13.370;2024-02-21T14:48:31;11.90;99.90
9772;DHT22;4925;52.588;13.370;2024-02-21T14:50:58;12.00;99.90
9772;DHT22;4925;52.588;13.370;2024-02-21T14:53:24;12.00;99.90
9772;DHT22;4925;52.588;13.370;2024-02-21T14:55:49;11.90;99.90
9772;DHT22;4925;52.588;13.370;2024-02-21T14:58:16;12.00;99.90
9772;DHT22;4925;52.588;13.370;2024-02-21T15:00:43;12.00;99.90
9772;DHT22;4925;52.588;13.370;2024-02-21T15:03:09;12.10;99.90
9772;DHT22;4925;52.588;13.370;2024-02-21T15:05:36;12.00;99.90
9772;DHT22;4925;52.588;13.370;2024-02-21T15:08:04;11.90;99.90
9772;DHT22;4925;52.588;13.370;2024-02-21T15:10:29;11.80;99.90
9772;DHT22;4925;52.588;13.370;2024-02-21T15:12:55;11.80;99.90
9772;DHT22;4925;52.588;13.370;2024-02-21T15:15:21;11.80;99.90
9772;DHT22;4925;52.588;13.370;2024-02-21T15:17:47;11.70;99.90
9772;DHT22;4925;52.588;13.370;2024-02-21T15:20:13;11.80;99.90
9772;DHT22;4925;52.588;13.370;2024-02-21T15:22:39;11.90;99.90
9772;DHT22;4925;52.588;13.370;2024-02-21T15:25:05;11.80;99.90
9772;DHT22;4925;52.588;13.370;2024-02-21T15:27:30;11.80;99.90
9772;DHT22;4925;52.588;13.370;2024-02-21T15:29:57;11.80;99.90
9772;DHT22;4925;52.588;13.370;2024-02-21T15:32:23;11.80;99.90
9772;DHT22;4925;52.588;13.370;2024-02-21T15:34:49;11.90;99.90
9772;DHT22;4925;52.588;13.370;2024-02-21T15:37:15;11.80;99.90
9772;DHT22;4925;52.588;13.370;2024-02-21T15:39:43;11.80;99.90
9772;DHT22;4925;52.588;13.370;2024-02-21T15:42:10;11.80;99.90
9772;DHT22;4925;52.588;13.370;2024-02-21T15:44:35;11.80;99.90
9772;DHT22;4925;52.588;13.370;2024-02-21T15:47:01;11.80;99.90
9772;DHT22;4925;52.588;13.370;2024-02-21T15:49:27;11.90;99.90
9772;DHT22;4925;52.588;13.370;2024-02-21T15:51:52;11.80;99.90
9772;DHT22;4925;52.588;13.370;2024-02-21T15:54:20;11.80;99.90
9772;DHT22;4925;52.588;13.370;2024-02-21T15:56:45;11.80;99.90
9772;DHT22;4925;52.588;13.370;2024-02-21T15:59:12;11.70;99.90
9772;DHT22;4925;52.588;13.370;2024-02-21T16:01:38;11.70;99.90